Clarksdale Fletcher Field Air, MS

5:54 AM CDT on October 17, 2019 (GMT -0500)
Fletcher

Weather History for KCKM - August, 2019

Change the Weather History Date:

Tuesday, August 13, 2019

  Actual Average (WUND) Record (WUND)
Temperature  
Mean Temperature 86 °F -  
Max Temperature 95 °F - - (-1)
Min Temperature 77 °F - - (-1)
Cooling Degree Days 21    
Growing Degree Days 36 (Base 50)    
Moisture  
Dew Point 81 °F    
Average Humidity 87    
Maximum Humidity 100    
Minimum Humidity 63    
Precipitation  
Precipitation 0.00 in - - ()
Sea Level Pressure  
Sea Level Pressure 29.89 in    
Wind  
Wind Speed 0 mph (NW)    
Max Wind Speed 8 mph    
Max Gust Speed -    
Visibility 10 miles    
Events      
Averages and records for this station are not official NWS values.
T = Trace of Precipitation, MM = Missing Value Source: NWS Daily Summary

Daily Weather History Graph

Daily Weather History Graph

Search for Another Location

Airport or City:

Astronomy

Aug. 13, 2019 Rise Set
Actual Time 6:21 AM CDT 7:51 PM CDT
Civil Twilight 5:54 AM CDT 8:18 PM CDT
Nautical Twilight 5:22 AM CDT 8:50 PM CDT
Astronomical Twilight 4:49 AM CDT 9:23 PM CDT
Moon 7:01 PM CDT (8/13) 4:29 AM CDT (8/13)
Length of Visible Light 14h 23m
Length of Day
13h 30m
Waxing Gibbous, 97% of the Moon is Illuminated
Aug 13
Waxing Gibbous
Aug 15
Full
Aug 23
Last Quarter
Aug 30
New
Sep 5
First Quarter

Hourly Weather History & Observations

Time (CDT) Temp. Heat Index Dew Point Humidity Pressure Visibility Wind Dir Wind Speed Gust Speed Precip Events Conditions
12:15 AM 82.4 °F 96.1 °F 82.4 °F 100% 29.88 in 10.0 mi Calm Calm - N/A   Partly Cloudy
12:35 AM 82.4 °F 96.1 °F 82.4 °F 100% 29.88 in 9.0 mi Calm Calm - N/A   Clear
12:55 AM 82.4 °F 96.1 °F 82.4 °F 100% 29.88 in 10.0 mi Calm Calm - N/A   Clear
1:15 AM 82.4 °F 96.1 °F 82.4 °F 100% 29.88 in 10.0 mi Calm Calm - N/A   Clear
1:35 AM 82.4 °F 96.1 °F 82.4 °F 100% 29.87 in 10.0 mi Calm Calm - N/A   Clear
1:55 AM 82.4 °F 96.1 °F 82.4 °F 100% 29.87 in 10.0 mi Calm Calm - N/A   Clear
2:15 AM 82.4 °F 96.1 °F 82.4 °F 100% 29.87 in 10.0 mi Calm Calm - N/A   Clear
2:35 AM 80.6 °F 89.3 °F 80.6 °F 100% 29.87 in 10.0 mi Calm Calm - N/A   Clear
2:55 AM 80.6 °F 89.3 °F 80.6 °F 100% 29.87 in 10.0 mi Calm Calm - N/A   Clear
3:15 AM 80.6 °F 89.3 °F 80.6 °F 100% 29.87 in 10.0 mi Calm Calm - N/A   Clear
3:35 AM 80.6 °F 89.3 °F 80.6 °F 100% 29.87 in 10.0 mi Calm Calm - N/A   Clear
3:55 AM 80.6 °F 89.3 °F 80.6 °F 100% 29.87 in 10.0 mi Calm Calm - N/A   Clear
4:15 AM 80.6 °F 89.3 °F 80.6 °F 100% 29.88 in 10.0 mi Calm Calm - N/A   Clear
4:35 AM 78.8 °F - 78.8 °F 100% 29.88 in 8.0 mi Calm Calm - N/A   Clear
4:55 AM 78.8 °F - 78.8 °F 100% 29.88 in 9.0 mi Calm Calm - N/A   Clear
5:15 AM 80.6 °F 89.3 °F 80.6 °F 100% 29.88 in 10.0 mi Calm Calm - N/A   Clear
5:35 AM 80.6 °F 89.3 °F 80.6 °F 100% 29.88 in 10.0 mi Calm Calm - N/A   Clear
5:55 AM 78.8 °F - 78.8 °F 100% 29.90 in 9.0 mi Calm Calm - N/A   Clear
6:15 AM 78.8 °F - 78.8 °F 100% 29.90 in 8.0 mi Calm Calm - N/A   Clear
6:35 AM 78.8 °F - 78.8 °F 100% 29.91 in 7.0 mi Calm Calm - N/A   Clear
6:55 AM 78.8 °F - 78.8 °F 100% 29.91 in 6.0 mi Calm Calm - N/A   Clear
7:15 AM 80.6 °F 89.3 °F 80.6 °F 100% 29.91 in 8.0 mi Calm Calm - N/A   Clear
7:35 AM 82.4 °F 96.1 °F 82.4 °F 100% 29.91 in 8.0 mi Calm Calm - N/A   Clear
7:55 AM 82.4 °F 96.1 °F 82.4 °F 100% 29.91 in 9.0 mi Calm Calm - N/A   Clear
8:15 AM 84.2 °F 103.5 °F 84.2 °F 100% 29.92 in 10.0 mi Calm Calm - N/A   Clear
8:35 AM 86.0 °F 107.7 °F 84.2 °F 94% 29.92 in 10.0 mi SSW 5.8 mph - N/A   Clear
8:55 AM 86.0 °F 107.7 °F 84.2 °F 94% 29.93 in 10.0 mi WSW 4.6 mph - N/A   Clear
9:15 AM 87.8 °F 111.7 °F 84.2 °F 89% 29.93 in 10.0 mi Calm Calm - N/A   Clear
9:35 AM 87.8 °F 111.7 °F 84.2 °F 89% 29.93 in 10.0 mi Calm Calm - N/A   Clear
9:55 AM 89.6 °F 111.1 °F 82.4 °F 79% 29.92 in 10.0 mi Calm Calm - N/A   Clear
10:15 AM 89.6 °F 111.1 °F 82.4 °F 79% 29.92 in 10.0 mi Calm Calm - N/A   Clear
10:35 AM 89.6 °F 111.1 °F 82.4 °F 79% 29.93 in 10.0 mi Calm Calm - N/A   Clear
10:55 AM 91.4 °F 111.0 °F 80.6 °F 71% 29.92 in 10.0 mi Calm Calm - N/A   Clear
11:15 AM 93.2 °F 117.1 °F 82.4 °F 71% 29.92 in 10.0 mi Calm Calm - N/A   Clear
11:35 AM 93.2 °F 113.6 °F 80.6 °F 67% 29.92 in 10.0 mi Calm Calm - N/A   Clear
11:55 AM 93.2 °F 117.1 °F 82.4 °F 71% 29.92 in 10.0 mi Calm Calm - N/A   Scattered Clouds
12:15 PM 93.2 °F 117.1 °F 82.4 °F 71% 29.91 in 10.0 mi Calm Calm - N/A   Partly Cloudy
12:35 PM 93.2 °F 117.1 °F 82.4 °F 71% 29.91 in 10.0 mi Calm Calm - N/A   Clear
12:55 PM 93.2 °F 117.1 °F 82.4 °F 71% 29.91 in 10.0 mi Calm Calm - N/A   Clear
1:15 PM 95.0 °F 119.6 °F 82.4 °F 67% 29.90 in 10.0 mi Calm Calm - N/A   Clear
1:35 PM 95.0 °F 115.8 °F 80.6 °F 63% 29.90 in 10.0 mi Calm Calm - N/A   Clear
1:55 PM 95.0 °F 119.6 °F 82.4 °F 67% 29.89 in 10.0 mi Calm Calm - N/A   Clear
2:15 PM 95.0 °F 119.6 °F 82.4 °F 67% 29.89 in 10.0 mi Calm Calm - N/A   Partly Cloudy
2:55 PM 95.0 °F 119.6 °F 82.4 °F 67% 29.88 in 10.0 mi Calm Calm - N/A   Clear
3:15 PM 95.0 °F 119.6 °F 82.4 °F 67% 29.87 in 10.0 mi Calm Calm - N/A   Clear
3:35 PM 95.0 °F 119.6 °F 82.4 °F 67% 29.86 in 10.0 mi Calm Calm - N/A   Clear
3:55 PM 95.0 °F 119.6 °F 82.4 °F 67% 29.86 in 10.0 mi Calm Calm - N/A   Clear
4:15 PM 95.0 °F 119.6 °F 82.4 °F 67% 29.86 in 10.0 mi Calm Calm - N/A   Clear
4:35 PM 95.0 °F 119.6 °F 82.4 °F 67% 29.86 in 10.0 mi Calm Calm - N/A   Clear
4:55 PM 95.0 °F 119.6 °F 82.4 °F 67% 29.85 in 10.0 mi Calm Calm - N/A   Clear
5:15 PM 95.0 °F 123.7 °F 84.2 °F 71% 29.85 in 10.0 mi Calm Calm - N/A   Clear
5:35 PM 95.0 °F 123.7 °F 84.2 °F 71% 29.85 in 10.0 mi Calm Calm - N/A   Clear
5:55 PM 93.2 °F 120.9 °F 84.2 °F 75% 29.85 in 10.0 mi Calm Calm - N/A   Clear
6:15 PM 91.4 °F 117.8 °F 84.2 °F 79% 29.85 in 10.0 mi Calm Calm - N/A   Clear
6:35 PM 91.4 °F 122.4 °F 86.0 °F 84% 29.85 in 10.0 mi Calm Calm - N/A   Clear
6:55 PM 89.6 °F 119.2 °F 86.0 °F 89% 29.85 in 10.0 mi Calm Calm - N/A   Clear
7:15 PM 89.6 °F 119.2 °F 86.0 °F 89% 29.85 in 10.0 mi Calm Calm - N/A   Clear
7:35 PM 87.8 °F 115.4 °F 86.0 °F 94% 29.87 in 10.0 mi Calm Calm - N/A   Clear
7:55 PM 86.0 °F 111.5 °F 86.0 °F 100% 29.88 in 10.0 mi Calm Calm - N/A   Clear
8:15 PM 86.0 °F 111.5 °F 86.0 °F 100% 29.88 in 10.0 mi Calm Calm - N/A   Clear
8:35 PM 82.4 °F 89.5 °F 75.2 °F 79% 29.90 in 10.0 mi North 8.1 mph - N/A   Mostly Cloudy
8:55 PM 80.6 °F 86.2 °F 75.2 °F 84% 29.90 in 10.0 mi NNE 4.6 mph - N/A   Mostly Cloudy
9:15 PM 80.6 °F 85.4 °F 73.4 °F 79% 29.90 in 10.0 mi Calm Calm - N/A   Scattered Clouds
9:35 PM 78.8 °F - 73.4 °F 83% 29.91 in 10.0 mi Calm Calm - N/A   Mostly Cloudy
9:55 PM 78.8 °F - 75.2 °F 89% 29.91 in 10.0 mi Calm Calm - N/A   Overcast
10:15 PM 77.0 °F - 75.2 °F 94% 29.91 in 10.0 mi Calm Calm - N/A   Mostly Cloudy
10:35 PM 77.0 °F - 77.0 °F 100% 29.92 in 10.0 mi Calm Calm - N/A   Mostly Cloudy
10:55 PM 77.0 °F - 77.0 °F 100% 29.92 in 10.0 mi Calm Calm - N/A   Mostly Cloudy
11:15 PM 78.8 °F - 77.0 °F 94% 29.92 in 10.0 mi Calm Calm - N/A   Mostly Cloudy
11:35 PM 78.8 °F - 78.8 °F 100% 29.94 in 10.0 mi Calm Calm - N/A   Mostly Cloudy
11:55 PM 77.0 °F - 77.0 °F 100% 29.93 in 10.0 mi Calm Calm - N/A   Mostly Cloudy